Time;durP1;ratioP1;P1;durP2;ratioP2;P2;SDS_P1;SDS_P2;PMS_P1;PMS_P2;Temp;Humidity;BMP_temperature;BMP_pressure;BME280_temperature;BME280_humidity;BME280_pressure;Samples;Min_cycle;Max_cycle;Signal;HPM_P1;HPM_P2
2021/07/30 00:00:41;;;;;;;;;;;;;;;-142.75;55.52;76440.38;5069962;28;20524;-75
2021/07/30 00:03:06;;;;;;;;;;;;;;;-142.75;55.79;76440.38;5070320;28;19924;-76
2021/07/30 00:05:31;;;;;;;;;;;;;;;-142.75;55.63;76436.44;5071563;28;20532;-76
2021/07/30 00:07:57;;;;;;;;;;;;;;;-142.75;55.77;76424.63;5071541;28;19924;-76
2021/07/30 00:10:22;;;;;;;;;;;;;;;-142.75;55.63;76416.75;5071416;28;19928;-76
2021/07/30 00:12:50;;;;;;;;;;;;;;;-142.75;55.50;76408.88;5071338;28;19917;-76
2021/07/30 00:15:15;;;;;;;;;;;;;;;-142.75;55.83;76426.59;5071501;28;20017;-76
2021/07/30 00:17:40;;;;;;;;;;;;;;;-142.75;55.86;76438.41;5071583;28;20332;-76
2021/07/30 00:20:06;;;;;;;;;;;;;;;-142.75;55.65;76420.69;5070055;28;19924;-76
2021/07/30 00:22:31;;;;;;;;;;;;;;;-142.75;55.79;76420.69;5069899;28;19948;-76
2021/07/30 00:24:56;;;;;;;;;;;;;;;-142.75;55.88;76420.69;5071534;28;19991;-76
2021/07/30 00:27:22;;;;;;;;;;;;;;;-142.75;55.60;76404.94;5070030;28;19916;-76
2021/07/30 00:29:47;;;;;;;;;;;;;;;-142.75;55.41;76402.97;5070867;28;19967;-75
2021/07/30 00:32:12;;;;;;;;;;;;;;;-142.75;55.35;76408.88;5069515;28;19955;-76
2021/07/30 00:34:37;;;;;;;;;;;;;;;-142.75;55.56;76416.75;5080766;28;19920;-75
2021/07/30 00:37:03;;;;;;;;;;;;;;;-142.75;55.53;76412.81;5091025;28;20357;-76
2021/07/30 00:39:28;;;;;;;;;;;;;;;-142.75;55.67;76412.81;5069444;28;20297;-77
2021/07/30 00:41:53;;;;;;;;;;;;;;;-142.75;55.56;76412.81;5069782;28;19948;-75
2021/07/30 00:44:18;;;;;;;;;;;;;;;-142.75;55.63;76420.69;5071077;28;20015;-77
2021/07/30 00:46:43;;;;;;;;;;;;;;;-142.75;55.76;76424.63;5070879;28;19916;-76
2021/07/30 00:49:09;;;;;;;;;;;;;;;-142.75;55.82;76408.88;5069806;28;20359;-76
2021/07/30 00:51:36;;;;;;;;;;;;;;;-142.75;55.76;76410.84;5070491;28;19924;-76
2021/07/30 00:54:01;;;;;;;;;;;;;;;-142.75;56.05;76436.44;5071187;28;19974;-76
2021/07/30 00:56:27;;;;;;;;;;;;;;;-142.75;56.84;76452.19;5070915;28;19959;-76
2021/07/30 00:58:52;;;;;;;;;;;;;;;-142.75;56.83;76434.47;5076640;28;19930;-76
2021/07/30 01:01:17;;;;;;;;;;;;;;;-142.75;56.51;76428.56;5087163;28;19943;-75
2021/07/30 01:03:43;;;;;;;;;;;;;;;-142.75;56.91;76450.22;5070669;28;20007;-76
2021/07/30 01:06:08;;;;;;;;;;;;;;;-142.75;57.12;76446.28;5070027;28;19921;-77
2021/07/30 01:08:33;;;;;;;;;;;;;;;-142.75;57.27;76448.25;5070695;28;20336;-76
2021/07/30 01:10:58;;;;;;;;;;;;;;;-142.75;57.34;76448.25;5071367;28;20438;-76
2021/07/30 01:13:24;;;;;;;;;;;;;;;-142.75;57.04;76450.22;5069370;28;20326;-75
2021/07/30 01:15:49;;;;;;;;;;;;;;;-142.75;57.21;76452.19;5070527;28;20475;-76
2021/07/30 01:18:14;;;;;;;;;;;;;;;-142.75;57.14;76444.31;5070599;28;19950;-76
2021/07/30 01:20:41;;;;;;;;;;;;;;;-142.75;57.32;76465.97;5070310;28;20304;-75
2021/07/30 01:23:07;;;;;;;;;;;;;;;-142.75;57.34;76471.88;5070225;28;19955;-76
2021/07/30 01:25:33;;;;;;;;;;;;;;;-142.75;57.55;76475.81;5070553;28;19923;-76
2021/07/30 01:27:58;;;;;;;;;;;;;;;-142.75;57.86;76475.81;5070698;28;19920;-76
2021/07/30 01:30:24;;;;;;;;;;;;;;;-142.75;57.87;76477.78;5070120;28;19943;-77
2021/07/30 01:32:49;;;;;;;;;;;;;;;-142.75;57.54;76446.28;5069978;28;20382;-76
2021/07/30 01:35:14;;;;;;;;;;;;;;;-142.75;57.60;76460.06;5070166;28;19920;-76
2021/07/30 01:37:40;;;;;;;;;;;;;;;-142.75;57.39;76440.38;5070163;28;19916;-76
2021/07/30 01:40:05;;;;;;;;;;;;;;;-142.75;57.76;76448.25;5069660;28;19942;-76
2021/07/30 01:42:31;;;;;;;;;;;;;;;-142.75;57.88;76442.34;5071000;28;19916;-76
2021/07/30 01:44:56;;;;;;;;;;;;;;;-142.75;57.72;76438.41;5070338;28;19917;-77
2021/07/30 01:47:21;;;;;;;;;;;;;;;-142.75;57.72;76436.44;5070237;28;20340;-76
2021/07/30 01:49:50;;;;;;;;;;;;;;;-142.75;57.57;76430.53;5070055;28;19985;-75
2021/07/30 01:52:15;;;;;;;;;;;;;;;-142.75;57.17;76436.44;5070195;28;19916;-75
2021/07/30 01:54:40;;;;;;;;;;;;;;;-142.75;57.71;76438.41;5070301;28;19923;-76
2021/07/30 01:57:06;;;;;;;;;;;;;;;-142.75;57.60;76430.53;5070164;28;20345;-75
2021/07/30 01:59:31;;;;;;;;;;;;;;;-142.75;57.63;76436.44;5069763;28;20025;-76
2021/07/30 02:01:56;;;;;;;;;;;;;;;-142.75;57.83;76438.41;5069751;28;19939;-76
2021/07/30 02:04:21;;;;;;;;;;;;;;;-142.75;57.93;76444.31;5068748;28;19939;-76
2021/07/30 02:06:47;;;;;;;;;;;;;;;-142.75;58.12;76458.09;5070004;28;20301;-76
2021/07/30 02:09:12;;;;;;;;;;;;;;;-142.75;58.37;76464.00;5069964;28;19917;-76
2021/07/30 02:11:40;;;;;;;;;;;;;;;-142.75;58.42;76460.06;5070391;28;19924;-76
2021/07/30 02:14:17;;;;;;;;;;;;;;;-142.75;58.67;76448.25;5069047;28;19917;-77
2021/07/30 02:16:44;;;;;;;;;;;;;;;-142.75;58.83;76456.13;5088618;28;19922;-75
2021/07/30 02:19:09;;;;;;;;;;;;;;;-142.75;58.63;76452.19;5093182;28;19920;-76
2021/07/30 02:21:34;;;;;;;;;;;;;;;-142.75;58.91;76462.03;5092409;28;19966;-76
2021/07/30 02:24:00;;;;;;;;;;;;;;;-142.75;58.88;76454.16;5094040;28;19917;-76
2021/07/30 02:26:25;;;;;;;;;;;;;;;-142.75;58.66;76442.34;5094126;28;20428;-76
2021/07/30 02:28:50;;;;;;;;;;;;;;;-142.75;58.83;76454.16;5092430;28;19916;-76
2021/07/30 02:31:16;;;;;;;;;;;;;;;-142.75;58.57;76424.63;5091921;28;20024;-75
2021/07/30 02:33:41;;;;;;;;;;;;;;;-142.75;59.14;76464.00;5093528;28;19959;-76
2021/07/30 02:36:06;;;;;;;;;;;;;;;-142.75;59.35;76458.09;5093371;28;19923;-75
2021/07/30 02:38:31;;;;;;;;;;;;;;;-142.75;59.36;76460.06;5093586;28;19924;-76
2021/07/30 02:40:56;;;;;;;;;;;;;;;-142.75;59.69;76471.88;5092650;28;19923;-75
2021/07/30 02:43:22;;;;;;;;;;;;;;;-142.75;59.86;76462.03;5091737;28;19966;-76
2021/07/30 02:45:47;;;;;;;;;;;;;;;-142.75;60.00;76460.06;5093442;28;19920;-76
2021/07/30 02:48:12;;;;;;;;;;;;;;;-142.75;60.00;76464.00;5093170;28;20364;-77
2021/07/30 02:50:37;;;;;;;;;;;;;;;-142.75;60.21;76467.94;5091584;28;19923;-76
2021/07/30 02:53:02;;;;;;;;;;;;;;;-142.75;60.13;76454.16;5092953;28;19924;-76
2021/07/30 02:55:28;;;;;;;;;;;;;;;-142.75;60.21;76456.13;5091773;28;19945;-76
2021/07/30 02:57:53;;;;;;;;;;;;;;;-142.75;60.06;76452.19;5091587;28;19941;-76
2021/07/30 03:00:18;;;;;;;;;;;;;;;-142.75;59.75;76438.41;5093081;28;20325;-76
2021/07/30 03:02:43;;;;;;;;;;;;;;;-142.75;59.71;76426.59;5092899;28;19917;-76
2021/07/30 03:05:09;;;;;;;;;;;;;;;-142.75;59.13;76408.88;5091933;28;19926;-76
2021/07/30 03:07:34;;;;;;;;;;;;;;;-142.75;59.10;76406.91;5092912;28;19961;-76
2021/07/30 03:09:59;;;;;;;;;;;;;;;-142.75;59.32;76410.84;5091430;28;19927;-75
2021/07/30 03:12:24;;;;;;;;;;;;;;;-142.75;59.19;76420.69;5086927;28;20370;-76
2021/07/30 03:14:49;;;;;;;;;;;;;;;-142.75;59.39;76432.50;5072516;28;19931;-76
2021/07/30 03:17:15;;;;;;;;;;;;;;;-142.75;59.67;76434.47;5072519;28;19923;-76
2021/07/30 03:19:40;;;;;;;;;;;;;;;-142.75;59.73;76424.63;5072554;28;19916;-75
2021/07/30 03:22:05;;;;;;;;;;;;;;;-142.75;59.69;76426.59;5072121;28;20012;-76
2021/07/30 03:24:30;;;;;;;;;;;;;;;-142.75;59.85;76416.75;5072467;28;19917;-77
2021/07/30 03:26:55;;;;;;;;;;;;;;;-142.75;59.74;76420.69;5087101;28;19916;-76
2021/07/30 03:29:21;;;;;;;;;;;;;;;-142.75;59.59;76414.78;5091750;28;19916;-76
2021/07/30 03:31:47;;;;;;;;;;;;;;;-142.75;59.64;76426.59;5090659;28;20006;-76
2021/07/30 03:34:12;;;;;;;;;;;;;;;-142.75;59.77;76434.47;5091375;28;19920;-76
2021/07/30 03:36:38;;;;;;;;;;;;;;;-142.75;59.67;76428.56;5092268;28;19916;-75
2021/07/30 03:39:03;;;;;;;;;;;;;;;-142.75;59.91;76434.47;5091921;28;20428;-76
2021/07/30 03:41:28;;;;;;;;;;;;;;;-142.75;59.59;76428.56;5091252;28;19927;-76
2021/07/30 03:43:53;;;;;;;;;;;;;;;-142.75;59.55;76432.50;5092108;28;21454;-76
2021/07/30 03:46:18;;;;;;;;;;;;;;;-142.75;59.60;76424.63;5092026;28;19927;-76
2021/07/30 03:48:44;;;;;;;;;;;;;;;-142.75;59.66;76412.81;5092372;28;19916;-76
2021/07/30 03:51:09;;;;;;;;;;;;;;;-142.75;59.25;76410.84;5091478;28;19974;-76
2021/07/30 03:53:34;;;;;;;;;;;;;;;-142.75;59.57;76416.75;5090527;28;20011;-75
2021/07/30 03:55:59;;;;;;;;;;;;;;;-142.75;59.55;76420.69;5090667;28;19967;-75
2021/07/30 03:58:24;;;;;;;;;;;;;;;-142.75;59.82;76424.63;5092106;28;20332;-76
2021/07/30 04:00:49;;;;;;;;;;;;;;;-142.75;59.77;76424.63;5089788;28;19925;-76
2021/07/30 04:03:15;;;;;;;;;;;;;;;-142.75;59.86;76428.56;5091553;28;20436;-76
2021/07/30 04:05:40;;;;;;;;;;;;;;;-142.75;59.93;76426.59;5091742;28;19923;-75
2021/07/30 04:08:06;;;;;;;;;;;;;;;-142.75;59.82;76424.63;5091398;28;19920;-76
2021/07/30 04:10:32;;;;;;;;;;;;;;;-142.75;60.14;76420.69;5090362;28;19920;-76
2021/07/30 04:12:57;;;;;;;;;;;;;;;-142.75;60.19;76412.81;5092084;28;20052;-75
2021/07/30 04:15:22;;;;;;;;;;;;;;;-142.75;59.83;76408.88;5091823;28;19962;-76
2021/07/30 04:17:48;;;;;;;;;;;;;;;-142.75;59.51;76397.06;5091695;28;19923;-76
2021/07/30 04:20:13;;;;;;;;;;;;;;;-142.75;58.88;76373.44;5090672;28;19991;-76
2021/07/30 04:22:39;;;;;;;;;;;;;;;-142.75;58.89;76357.69;5076375;28;19924;-75
2021/07/30 04:25:04;;;;;;;;;;;;;;;-142.75;58.34;76349.81;5082486;28;19916;-76
2021/07/30 04:27:29;;;;;;;;;;;;;;;-142.75;58.52;76353.78;5090618;28;20373;-76
2021/07/30 04:29:54;;;;;;;;;;;;;;;-142.75;58.35;76351.81;5090404;28;19927;-75
2021/07/30 04:32:20;;;;;;;;;;;;;;;-142.75;58.57;76349.81;5089504;28;20300;-77
2021/07/30 04:34:45;;;;;;;;;;;;;;;-142.75;58.63;76340.00;5089342;28;19922;-76
2021/07/30 04:37:10;;;;;;;;;;;;;;;-142.75;58.44;76336.06;5090587;28;19917;-74
2021/07/30 04:39:35;;;;;;;;;;;;;;;-142.75;58.26;76334.09;5090226;28;20285;-76
2021/07/30 04:42:01;;;;;;;;;;;;;;;-142.75;58.23;76326.22;5090341;28;19922;-76
2021/07/30 04:44:26;;;;;;;;;;;;;;;-142.75;58.10;76294.72;5089133;28;19923;-76
2021/07/30 04:46:51;;;;;;;;;;;;;;;-142.75;57.57;76277.00;5090734;28;19920;-76
2021/07/30 04:49:16;;;;;;;;;;;;;;;-142.75;57.66;76302.59;5090589;28;20354;-76
2021/07/30 04:51:42;;;;;;;;;;;;;;;-142.75;57.89;76302.59;5089970;28;19920;-76
2021/07/30 04:54:07;;;;;;;;;;;;;;;-142.75;57.98;76302.59;5090492;28;20365;-77
2021/07/30 04:56:32;;;;;;;;;;;;;;;-142.75;57.92;76294.72;5090329;28;19960;-76
2021/07/30 04:58:58;;;;;;;;;;;;;;;-142.75;57.57;76280.94;5088960;28;19916;-76
2021/07/30 05:01:24;;;;;;;;;;;;;;;-142.75;58.00;76306.53;5089927;28;19931;-76
2021/07/30 05:03:49;;;;;;;;;;;;;;;-142.75;58.84;76349.81;5079974;28;19916;-76
2021/07/30 05:06:17;;;;;;;;;;;;;;;-142.75;58.84;76330.16;5087094;28;19916;-76
2021/07/30 05:08:42;;;;;;;;;;;;;;;-142.75;58.45;76318.34;5082848;28;19963;-76
2021/07/30 05:11:08;;;;;;;;;;;;;;;-142.75;57.52;76290.78;5068223;28;20011;-76
2021/07/30 05:13:33;;;;;;;;;;;;;;;-142.75;57.17;76269.13;5082222;22;19924;-77
2021/07/30 05:15:59;;;;;;;;;;;;;;;-142.75;56.82;76255.34;5067655;28;19921;-78
2021/07/30 05:18:24;;;;;;;;;;;;;;;-142.75;56.73;76239.59;5053168;28;20425;-76
2021/07/30 05:20:50;;;;;;;;;;;;;;;-142.75;56.34;76227.78;5052886;28;19925;-76
2021/07/30 05:23:15;;;;;;;;;;;;;;;-142.75;55.85;76231.72;5063979;28;19917;-75
2021/07/30 05:25:40;;;;;;;;;;;;;;;-142.75;55.91;76215.97;5056549;28;19916;-76
2021/07/30 05:28:05;;;;;;;;;;;;;;;-142.75;55.32;76204.16;5054792;28;20011;-77
2021/07/30 05:30:31;;;;;;;;;;;;;;;-142.75;54.88;76192.38;5069098;28;19921;-76
2021/07/30 05:32:56;;;;;;;;;;;;;;;-142.75;55.14;76192.38;5054016;28;19971;-77
2021/07/30 05:35:21;;;;;;;;;;;;;;;-142.75;55.19;76178.59;5056594;28;19982;-78
2021/07/30 05:37:47;;;;;;;;;;;;;;;-142.75;54.88;76182.53;5054612;28;19923;-77
2021/07/30 05:40:12;;;;;;;;;;;;;;;-142.75;54.70;76156.94;5059320;28;19920;-77
2021/07/30 05:42:37;;;;;;;;;;;;;;;-142.75;54.57;76164.81;5065409;28;19920;-75
2021/07/30 05:45:02;;;;;;;;;;;;;;;-142.75;54.31;76119.53;5057674;28;19916;-76
2021/07/30 05:47:28;;;;;;;;;;;;;;;-142.75;55.24;76127.41;5055001;28;20012;-76
2021/07/30 05:49:53;;;;;;;;;;;;;;;-142.75;54.56;76082.13;5059417;28;19935;-78
2021/07/30 05:52:18;;;;;;;;;;;;;;;-142.75;55.07;76088.03;5056467;28;19917;-75
2021/07/30 05:54:43;;;;;;;;;;;;;;;-142.75;54.49;76054.59;5066188;28;19916;-77
2021/07/30 05:57:08;;;;;;;;;;;;;;;-142.75;54.16;76027.03;5073268;28;20619;-76
2021/07/30 05:59:34;;;;;;;;;;;;;;;-142.75;53.39;76030.97;5061883;28;19932;-78
2021/07/30 06:01:59;;;;;;;;;;;;;;;-142.75;54.24;76030.97;5063138;28;19928;-76
2021/07/30 06:04:24;;;;;;;;;;;;;;;-142.75;53.85;76021.13;5066236;28;20370;-78
2021/07/30 06:06:49;;;;;;;;;;;;;;;-142.75;54.13;76036.88;5071751;28;19923;-78
2021/07/30 06:09:15;;;;;;;;;;;;;;;-142.75;55.44;76060.50;5064654;28;20003;-78
2021/07/30 06:11:40;;;;;;;;;;;;;;;-142.75;55.54;76062.47;5073148;28;19974;-75
2021/07/30 06:14:05;;;;;;;;;;;;;;;-142.75;55.70;76078.19;5056810;28;19923;-76
2021/07/30 06:16:30;;;;;;;;;;;;;;;-142.75;55.95;76091.97;5058156;28;19921;-76
2021/07/30 06:18:55;;;;;;;;;;;;;;;-142.75;56.45;76090.00;5064288;28;19923;-76
2021/07/30 06:21:20;;;;;;;;;;;;;;;-142.75;56.61;76060.50;5059277;28;20393;-76
2021/07/30 06:23:46;;;;;;;;;;;;;;;-142.75;56.15;76060.50;5064611;28;19996;-76
2021/07/30 06:26:11;;;;;;;;;;;;;;;-142.75;55.76;76050.66;5062532;28;20305;-76
2021/07/30 06:28:36;;;;;;;;;;;;;;;-142.75;56.29;76062.47;5061519;28;20404;-76
2021/07/30 06:31:01;;;;;;;;;;;;;;;-142.75;56.31;76050.66;5063738;28;19967;-76
2021/07/30 06:33:28;;;;;;;;;;;;;;;-142.75;55.34;76029.00;5059294;28;19966;-77
2021/07/30 06:35:54;;;;;;;;;;;;;;;-142.75;55.70;76025.06;5059104;28;19932;-76
2021/07/30 06:38:19;;;;;;;;;;;;;;;-142.75;56.01;76015.22;5057529;28;19916;-76
2021/07/30 06:40:45;;;;;;;;;;;;;;;-142.75;56.08;76032.94;5055520;28;19916;-78
2021/07/30 06:43:10;;;;;;;;;;;;;;;-142.75;55.31;76038.84;5063601;28;19921;-78
2021/07/30 06:45:36;;;;;;;;;;;;;;;-142.75;56.10;76091.97;5055604;28;20003;-77
2021/07/30 06:48:01;;;;;;;;;;;;;;;-142.75;55.08;76042.78;5058295;28;19924;-77
2021/07/30 06:50:26;;;;;;;;;;;;;;;-142.75;54.66;76027.03;5061457;28;19963;-75
2021/07/30 06:52:54;;;;;;;;;;;;;;;-142.75;55.18;76015.22;5052251;28;20112;-77
2021/07/30 06:55:19;;;;;;;;;;;;;;;-142.75;54.30;75987.66;5064124;28;19979;-76
2021/07/30 06:57:44;;;;;;;;;;;;;;;-142.75;54.37;76011.28;5065281;28;19970;-76
2021/07/30 07:00:11;;;;;;;;;;;;;;;-142.75;54.63;75983.72;5068501;28;19916;-76
2021/07/30 07:02:37;;;;;;;;;;;;;;;-142.75;54.98;75989.63;5060014;28;20306;-75
2021/07/30 07:05:02;;;;;;;;;;;;;;;-142.75;54.49;75954.22;5051928;28;19920;-77
2021/07/30 07:07:27;;;;;;;;;;;;;;;-142.75;54.57;75956.19;5061393;28;19916;-76
2021/07/30 07:09:52;;;;;;;;;;;;;;;-142.75;53.60;75971.91;5056285;28;19921;-76
2021/07/30 07:12:17;;;;;;;;;;;;;;;-142.75;54.11;75932.56;5070129;28;19920;-79
2021/07/30 07:14:43;;;;;;;;;;;;;;;-142.75;53.23;75908.94;5048856;28;19917;-75
2021/07/30 07:17:08;;;;;;;;;;;;;;;-142.75;52.67;75883.34;5061508;28;19993;-76
2021/07/30 07:19:33;;;;;;;;;;;;;;;-142.75;51.96;75859.72;5062660;28;19948;-76
2021/07/30 07:21:58;;;;;;;;;;;;;;;-142.75;51.64;75802.66;5066203;28;19917;-76
2021/07/30 07:24:23;;;;;;;;;;;;;;;-142.75;50.76;75816.44;5054452;28;20378;-76
2021/07/30 07:26:49;;;;;;;;;;;;;;;-142.75;51.48;75775.09;5048765;28;19925;-75
2021/07/30 07:29:14;;;;;;;;;;;;;;;-142.75;50.60;75784.94;5063818;28;19924;-75
2021/07/30 07:31:39;;;;;;;;;;;;;;;-142.75;50.92;75775.09;5058065;28;20378;-75
2021/07/30 07:34:04;;;;;;;;;;;;;;;-142.75;50.48;75749.53;5066978;28;20456;-76
2021/07/30 07:36:29;;;;;;;;;;;;;;;-142.75;49.96;75767.22;5059077;28;19921;-76
2021/07/30 07:38:55;;;;;;;;;;;;;;;-142.75;48.70;75653.09;5056043;28;19920;-75
2021/07/30 07:41:20;;;;;;;;;;;;;;;-142.75;47.06;75546.81;5049646;28;19924;-76
2021/07/30 07:43:45;;;;;;;;;;;;;;;-142.75;44.82;75448.41;5052763;28;19924;-77
2021/07/30 07:46:10;;;;;;;;;;;;;;;-142.75;44.93;75440.53;5062682;28;19969;-75
2021/07/30 07:48:35;;;;;;;;;;;;;;;-142.75;45.91;75438.56;5063569;28;20003;-76
2021/07/30 07:51:01;;;;;;;;;;;;;;;-142.75;44.99;75432.69;5052984;28;19920;-75
2021/07/30 07:53:26;;;;;;;;;;;;;;;-142.75;46.35;75444.47;5060904;28;19923;-76
2021/07/30 07:56:02;;;;;;;;;;;;;;;-142.75;46.21;75479.91;5052779;28;19920;-77
2021/07/30 07:58:28;;;;;;;;;;;;;;;-142.75;44.96;75416.94;5049477;28;19916;-77
2021/07/30 08:00:53;;;;;;;;;;;;;;;-142.75;44.26;75399.22;5059040;28;20298;-75
2021/07/30 08:03:18;;;;;;;;;;;;;;;-142.75;45.24;75407.09;5048408;28;20007;-76
2021/07/30 08:05:43;;;;;;;;;;;;;;;-142.75;44.93;75350.03;5059576;28;19924;-76
2021/07/30 08:08:08;;;;;;;;;;;;;;;-142.75;43.72;75263.44;5061365;28;19956;-75
2021/07/30 08:10:33;;;;;;;;;;;;;;;-142.75;43.86;75385.44;5047374;28;19928;-75
2021/07/30 08:12:59;;;;;;;;;;;;;;;-142.75;43.71;75369.69;5061758;28;19954;-76
2021/07/30 08:15:24;;;;;;;;;;;;;;;-142.75;45.69;75489.75;5055795;28;20368;-75
2021/07/30 08:17:49;;;;;;;;;;;;;;;-142.75;44.52;75381.50;5061867;28;19928;-76
2021/07/30 08:20:14;;;;;;;;;;;;;;;-142.75;44.85;75413.00;5061999;28;20417;-76
2021/07/30 08:22:42;;;;;;;;;;;;;;;-142.75;44.61;75377.56;5068301;28;19928;-76
2021/07/30 08:25:08;;;;;;;;;;;;;;;-142.75;45.34;75409.06;5057231;28;19924;-76
2021/07/30 08:27:34;;;;;;;;;;;;;;;-142.75;45.08;75397.25;5047746;28;19917;-75
2021/07/30 08:29:59;;;;;;;;;;;;;;;-142.75;43.70;75348.06;5051171;28;19920;-76
2021/07/30 08:32:24;;;;;;;;;;;;;;;-142.75;44.42;75318.53;5051519;28;20340;-77
2021/07/30 08:34:50;;;;;;;;;;;;;;;-142.75;42.29;75194.56;5063053;28;19916;-76
2021/07/30 08:37:15;;;;;;;;;;;;;;;-142.75;41.77;75106.00;5058402;28;19924;-77
2021/07/30 08:39:40;;;;;;;;;;;;;;;-142.75;41.11;75141.44;5057284;28;20429;-75
2021/07/30 08:42:05;;;;;;;;;;;;;;;-142.75;41.20;75151.28;5053917;28;19970;-76
2021/07/30 08:44:31;;;;;;;;;;;;;;;-142.75;41.40;75109.94;5053430;28;19924;-75
2021/07/30 08:46:57;;;;;;;;;;;;;;;-142.75;42.32;75277.22;5052132;28;20390;-76
2021/07/30 08:49:22;;;;;;;;;;;;;;;-142.75;42.09;75287.06;5056319;28;19927;-75
2021/07/30 08:51:56;;;;;;;;;;;;;;;-142.75;42.73;75259.50;5063766;28;20382;-76
2021/07/30 08:54:21;;;;;;;;;;;;;;;-142.75;42.62;75206.38;5068410;28;19925;-76
2021/07/30 08:56:47;;;;;;;;;;;;;;;-142.75;42.42;75233.91;5064024;28;19936;-76
2021/07/30 08:59:12;;;;;;;;;;;;;;;-142.75;42.91;75361.84;5060696;28;19921;-76
2021/07/30 09:01:37;;;;;;;;;;;;;;;-142.75;42.88;75318.53;5060262;28;20453;-76
2021/07/30 09:04:03;;;;;;;;;;;;;;;-142.75;42.51;75281.16;5066303;28;19939;-77
2021/07/30 09:06:28;;;;;;;;;;;;;;;-142.75;41.96;75247.69;5070293;28;19995;-76
2021/07/30 09:08:53;;;;;;;;;;;;;;;-142.75;42.35;75259.50;5060324;28;20392;-75
2021/07/30 09:11:30;;;;;;;;;;;;;;;-142.75;43.46;75357.91;5059450;28;19920;-76
2021/07/30 09:13:56;;;;;;;;;;;;;;;-142.75;43.18;75202.44;5049499;28;19970;-76
2021/07/30 09:16:21;;;;;;;;;;;;;;;-142.75;40.67;75070.59;5049230;28;20390;-78
2021/07/30 09:18:46;;;;;;;;;;;;;;;-142.75;40.41;75043.03;5067215;28;20563;-77
2021/07/30 09:21:15;;;;;;;;;;;;;;;-142.75;40.75;75084.38;5047870;28;20379;-77
2021/07/30 09:23:55;;;;;;;;;;;;;;;-142.75;41.81;75174.88;5048660;28;19955;-77
2021/07/30 09:26:30;;;;;;;;;;;;;;;-142.75;40.86;75068.63;5058031;28;19917;-77
2021/07/30 09:28:55;;;;;;;;;;;;;;;-142.75;40.99;75094.22;5066741;28;20263;-77
2021/07/30 09:31:23;;;;;;;;;;;;;;;-142.75;41.20;75157.19;5072450;28;19928;-76
2021/07/30 09:33:48;;;;;;;;;;;;;;;-142.75;41.78;75188.66;5074023;28;20008;-76
2021/07/30 09:36:15;;;;;;;;;;;;;;;-142.75;41.03;75135.53;5072834;28;20003;-76
2021/07/30 09:38:58;;;;;;;;;;;;;;;-142.75;41.29;75092.25;5070440;28;19920;-76
2021/07/30 09:41:23;;;;;;;;;;;;;;;-142.75;41.08;75121.75;5071401;28;19923;-76
2021/07/30 09:43:49;;;;;;;;;;;;;;;-142.75;42.04;75139.47;5072172;28;19920;-76
2021/07/30 09:46:15;;;;;;;;;;;;;;;-142.75;41.91;75123.72;5068535;28;20328;-76
2021/07/30 09:49:06;;;;;;;;;;;;;;;-142.75;41.56;75121.75;5062550;28;20011;-76
2021/07/30 09:51:32;;;;;;;;;;;;;;;-142.75;42.70;75184.72;5055332;28;20329;-77
2021/07/30 09:53:58;;;;;;;;;;;;;;;-142.75;42.36;75182.75;5061301;28;19916;-76
2021/07/30 09:56:24;;;;;;;;;;;;;;;-142.75;43.19;75178.81;5066632;28;19985;-77
2021/07/30 09:58:53;;;;;;;;;;;;;;;-142.75;43.55;75172.91;5053602;28;20378;-76
2021/07/30 10:01:18;;;;;;;;;;;;;;;-142.75;43.55;75200.47;5061940;28;20831;-75
2021/07/30 10:03:45;;;;;;;;;;;;;;;-142.75;43.06;75204.41;5066403;28;19920;-75
2021/07/30 10:06:13;;;;;;;;;;;;;;;-142.75;43.78;75206.38;5056516;28;19921;-76
2021/07/30 10:08:38;;;;;;;;;;;;;;;-142.75;42.43;75157.19;5053296;28;19925;-75
2021/07/30 10:11:04;;;;;;;;;;;;;;;-142.75;42.65;75135.53;5052945;28;19927;-77
2021/07/30 10:13:36;;;;;;;;;;;;;;;-142.75;41.98;75135.53;5057237;28;21335;-75
2021/07/30 10:16:03;;;;;;;;;;;;;;;-142.75;41.90;75151.28;5071944;28;19936;-76
2021/07/30 10:18:28;;;;;;;;;;;;;;;-142.75;43.02;75149.31;5053178;28;19956;-76
2021/07/30 10:20:58;;;;;;;;;;;;;;;-142.75;42.45;75178.81;5064053;28;20034;-77
2021/07/30 10:23:24;;;;;;;;;;;;;;;-142.75;42.73;75192.59;5066411;28;19956;-77
2021/07/30 10:25:52;;;;;;;;;;;;;;;-142.75;43.46;75161.13;5051603;28;20330;-76
2021/07/30 10:28:19;;;;;;;;;;;;;;;-142.75;42.82;75188.66;5061404;28;19920;-75
2021/07/30 10:30:54;;;;;;;;;;;;;;;-142.75;43.69;75198.50;5061172;28;19925;-76
2021/07/30 10:33:36;;;;;;;;;;;;;;;-142.75;43.86;75255.56;5072513;28;20401;-75
2021/07/30 10:36:02;;;;;;;;;;;;;;;-142.75;44.29;75261.47;5071775;28;20290;-75
2021/07/30 10:38:28;;;;;;;;;;;;;;;-142.75;44.22;75257.53;5070346;28;19923;-76
2021/07/30 10:41:08;;;;;;;;;;;;;;;-142.75;44.43;75251.63;5052163;28;19932;-76
2021/07/30 10:43:49;;;;;;;;;;;;;;;-142.75;44.90;75228.00;5052531;28;19920;-75
2021/07/30 10:46:14;;;;;;;;;;;;;;;-142.75;45.18;75214.25;5065271;28;19990;-76
2021/07/30 10:48:40;;;;;;;;;;;;;;;-142.75;43.10;75157.19;5056817;28;19970;-76
2021/07/30 10:51:17;;;;;;;;;;;;;;;-142.75;43.53;75147.34;5052265;28;19920;-76
2021/07/30 10:53:43;;;;;;;;;;;;;;;-142.75;42.94;75121.75;5051297;28;19952;-76
2021/07/30 10:56:14;;;;;;;;;;;;;;;-142.75;43.94;75111.91;5063826;28;20020;-76
2021/07/30 10:58:40;;;;;;;;;;;;;;;-142.75;43.28;75080.44;5059750;28;19979;-75
2021/07/30 11:01:05;;;;;;;;;;;;;;;-142.75;43.27;75086.34;5066839;28;20412;-76
2021/07/30 11:03:50;;;;;;;;;;;;;;;-142.75;44.90;75070.59;5070194;28;19916;-76
2021/07/30 11:06:29;;;;;;;;;;;;;;;-142.75;44.01;75131.59;5060470;28;19917;-76
2021/07/30 11:09:00;;;;;;;;;;;;;;;-142.75;44.49;75210.31;5056562;28;20544;-76
2021/07/30 11:11:44;;;;;;;;;;;;;;;-142.75;44.63;75190.63;5071991;28;19928;-76
2021/07/30 11:14:12;;;;;;;;;;;;;;;-142.75;44.54;75180.78;5058071;28;20293;-76
2021/07/30 11:16:37;;;;;;;;;;;;;;;-142.75;44.47;75157.19;5063266;28;20894;-77
2021/07/30 11:19:04;;;;;;;;;;;;;;;-142.75;44.50;75180.78;5059128;28;19917;-78
2021/07/30 11:21:29;;;;;;;;;;;;;;;-142.75;45.24;75184.72;5052353;28;20388;-76
2021/07/30 11:23:55;;;;;;;;;;;;;;;-142.75;44.31;75222.13;5060780;28;20010;-76
2021/07/30 11:26:20;;;;;;;;;;;;;;;-142.75;45.38;75188.66;5065432;28;19920;-77
2021/07/30 11:28:50;;;;;;;;;;;;;;;-142.75;44.92;75220.16;5053661;28;19920;-77
2021/07/30 11:31:15;;;;;;;;;;;;;;;-142.75;45.62;75208.34;5069936;28;19921;-76
2021/07/30 11:33:42;;;;;;;;;;;;;;;-142.75;45.48;75228.00;5069135;28;20594;-76
2021/07/30 11:36:13;;;;;;;;;;;;;;;-142.75;45.21;75194.56;5059532;28;19966;-76
2021/07/30 11:39:00;;;;;;;;;;;;;;;-142.75;44.95;75163.09;5064474;28;19920;-77
2021/07/30 11:41:25;;;;;;;;;;;;;;;-142.75;45.47;75192.59;5051761;28;19942;-76
2021/07/30 11:44:00;;;;;;;;;;;;;;;-142.75;45.75;75196.53;5051404;28;20019;-76
2021/07/30 11:46:32;;;;;;;;;;;;;;;-142.75;46.81;75220.16;5055948;28;19916;-77
2021/07/30 11:48:58;;;;;;;;;;;;;;;-142.75;45.56;75212.28;5065182;28;20283;-76
2021/07/30 11:51:23;;;;;;;;;;;;;;;-142.75;45.75;75192.59;5059050;28;19988;-76
2021/07/30 11:53:51;;;;;;;;;;;;;;;-142.75;45.71;75245.72;5056314;28;19923;-77
2021/07/30 11:56:17;;;;;;;;;;;;;;;-142.75;46.60;75247.69;5067271;28;20018;-78
2021/07/30 11:59:02;;;;;;;;;;;;;;;-142.75;46.52;75222.13;5069968;28;20427;-77
2021/07/30 12:01:28;;;;;;;;;;;;;;;-142.75;45.91;75194.56;5063237;28;19978;-77
2021/07/30 12:04:09;;;;;;;;;;;;;;;-142.75;46.54;75149.31;5069062;28;19924;-77
2021/07/30 12:06:55;;;;;;;;;;;;;;;-142.75;45.16;75129.63;5051213;28;19917;-76
2021/07/30 12:09:20;;;;;;;;;;;;;;;-142.75;45.72;75137.50;5056512;28;20003;-78
2021/07/30 12:11:52;;;;;;;;;;;;;;;-142.75;44.90;75157.19;5055903;28;20028;-77
2021/07/30 12:14:17;;;;;;;;;;;;;;;-142.75;45.46;75153.25;5068282;23;19925;-73
2021/07/30 12:16:43;;;;;;;;;;;;;;;-142.75;44.66;75149.31;5069537;28;19935;-73
2021/07/30 12:19:08;;;;;;;;;;;;;;;-142.75;45.75;75145.38;5057720;28;19970;-73
2021/07/30 12:21:34;;;;;;;;;;;;;;;-142.75;46.00;75157.19;5070865;28;19924;-73
2021/07/30 12:24:06;;;;;;;;;;;;;;;-142.75;45.21;75137.50;5070494;28;19917;-72